createdAt,value
2018-12-08T00:02:04.198Z,1.33
2018-12-08T00:04:38.145Z,1.30
2018-12-08T00:07:12.036Z,1.20
2018-12-08T00:09:45.929Z,1.00
2018-12-08T00:12:19.737Z,1.40
2018-12-08T00:14:57.409Z,1.20
2018-12-08T00:17:31.502Z,1.00
2018-12-08T00:20:05.471Z,1.47
2018-12-08T00:22:39.053Z,1.07
2018-12-08T00:25:13.109Z,1.33
2018-12-08T00:27:47.038Z,1.10
2018-12-08T00:30:26.179Z,1.00
2018-12-08T00:32:59.389Z,1.07
2018-12-08T00:35:33.247Z,1.17
2018-12-08T00:40:41.075Z,1.27
2018-12-08T00:43:14.978Z,1.00
2018-12-08T00:45:50.905Z,1.10
2018-12-08T00:48:24.102Z,1.43
2018-12-08T00:50:58.165Z,1.10
2018-12-08T00:53:32.084Z,0.90
2018-12-08T00:56:03.287Z,1.10
2018-12-08T00:58:36.929Z,1.40
2018-12-08T01:01:10.844Z,1.27
2018-12-08T01:03:44.697Z,1.43
2018-12-08T01:06:22.282Z,1.20
2018-12-08T01:08:56.342Z,1.90
2018-12-08T01:11:30.197Z,1.50
2018-12-08T01:14:04.136Z,1.10
2018-12-08T01:16:38.292Z,1.63
2018-12-08T01:19:09.576Z,1.33
2018-12-08T01:21:43.185Z,1.20
2018-12-08T01:24:17.141Z,1.20
2018-12-08T01:26:51.076Z,0.83
2018-12-08T01:29:25.204Z,1.60
2018-12-08T01:32:02.108Z,0.90
2018-12-08T01:34:35.941Z,0.90
2018-12-08T01:37:09.840Z,1.03
2018-12-08T01:39:43.665Z,1.83
2018-12-08T01:44:51.417Z,1.20
2018-12-08T01:47:25.551Z,1.00
2018-12-08T01:49:59.372Z,1.40
2018-12-08T01:52:33.200Z,1.10
2018-12-08T01:55:07.192Z,1.00
2018-12-08T01:57:41.105Z,1.10
2018-12-08T02:00:15.343Z,1.43
2018-12-08T02:02:49.361Z,1.50
2018-12-08T02:05:23.137Z,1.30
2018-12-08T02:07:57.135Z,1.20
2018-12-08T02:10:31.175Z,1.17
2018-12-08T02:13:10.786Z,1.23
2018-12-08T02:15:51.547Z,1.03
2018-12-08T02:18:28.303Z,1.00
2018-12-08T02:21:02.554Z,1.03
2018-12-08T02:23:43.990Z,1.43
2018-12-08T02:26:17.459Z,1.03
2018-12-08T02:28:51.354Z,0.80
2018-12-08T02:31:25.564Z,1.43
2018-12-08T02:34:03.285Z,1.03
2018-12-08T02:36:37.213Z,1.43
2018-12-08T02:39:11.296Z,1.03
2018-12-08T02:41:45.551Z,1.07
2018-12-08T02:44:18.938Z,1.20
2018-12-08T02:46:52.968Z,1.20
2018-12-08T02:49:26.909Z,1.47
2018-12-08T02:52:00.728Z,1.10
2018-12-08T02:54:34.648Z,1.43
2018-12-08T02:57:08.295Z,1.00
2018-12-08T02:59:42.448Z,1.17
2018-12-08T03:02:16.264Z,1.37
2018-12-08T03:04:50.438Z,1.00
2018-12-08T03:07:24.350Z,1.07
2018-12-08T03:09:58.209Z,1.10
2018-12-08T03:12:32.014Z,1.03
2018-12-08T03:15:06.131Z,0.93
2018-12-08T03:17:40.130Z,1.23
2018-12-08T03:20:14.158Z,1.17
2018-12-08T03:22:47.807Z,1.60
2018-12-08T03:25:21.749Z,1.27
2018-12-08T03:27:55.489Z,1.30
2018-12-08T03:30:33.370Z,1.30
2018-12-08T03:33:11.096Z,1.40
2018-12-08T03:35:47.005Z,1.03
2018-12-08T03:38:21.023Z,0.70
2018-12-08T03:40:54.891Z,1.33
2018-12-08T03:43:28.937Z,0.90
2018-12-08T03:46:02.893Z,0.70
2018-12-08T03:48:36.991Z,1.53
2018-12-08T03:51:10.942Z,0.60
2018-12-08T03:53:44.883Z,1.00
2018-12-08T03:56:18.765Z,0.93
2018-12-08T03:58:52.147Z,0.70
2018-12-08T04:01:25.981Z,0.93
2018-12-08T04:04:00.006Z,0.80
2018-12-08T04:06:34.160Z,0.77
2018-12-08T04:09:08.108Z,0.90
2018-12-08T04:11:42.158Z,1.10
2018-12-08T04:14:16.100Z,0.97
2018-12-08T04:16:54.781Z,0.80
2018-12-08T04:19:28.921Z,0.67
2018-12-08T04:22:02.868Z,0.77
2018-12-08T04:24:36.775Z,0.70
2018-12-08T04:27:10.821Z,0.50
2018-12-08T04:29:44.909Z,0.80
2018-12-08T04:32:18.905Z,1.20
2018-12-08T04:34:52.977Z,0.60
2018-12-08T04:37:27.074Z,0.70
2018-12-08T04:40:00.976Z,1.00
2018-12-08T04:42:34.899Z,0.50
2018-12-08T04:45:09.061Z,1.00
2018-12-08T04:47:45.015Z,0.97
2018-12-08T04:50:18.253Z,0.93
2018-12-08T04:52:52.297Z,0.70
2018-12-08T04:55:26.327Z,1.40
2018-12-08T04:58:00.133Z,1.07
2018-12-08T05:00:34.178Z,1.17
2018-12-08T05:03:08.038Z,1.20
2018-12-08T05:05:41.747Z,0.90
2018-12-08T05:08:19.580Z,0.93
2018-12-08T05:10:53.392Z,1.20
2018-12-08T05:13:27.285Z,0.97
2018-12-08T05:16:01.148Z,1.07
2018-12-08T05:18:35.271Z,0.80
2018-12-08T05:21:09.228Z,1.17
2018-12-08T05:23:43.107Z,1.13
2018-12-08T05:26:16.856Z,0.70
2018-12-08T05:28:50.886Z,0.90
2018-12-08T05:31:24.679Z,0.90
2018-12-08T05:33:58.607Z,1.10
2018-12-08T05:36:32.649Z,1.10
2018-12-08T05:39:06.661Z,1.07
2018-12-08T05:41:40.715Z,1.03
2018-12-08T05:44:14.725Z,1.07
2018-12-08T05:46:49.344Z,1.03
2018-12-08T05:49:23.582Z,0.70
2018-12-08T05:51:57.513Z,0.70
2018-12-08T05:54:31.504Z,0.90
2018-12-08T05:57:05.428Z,0.80
2018-12-08T05:59:43.274Z,0.87
2018-12-08T06:02:19.356Z,0.77
2018-12-08T06:04:55.888Z,0.93
2018-12-08T06:07:29.147Z,1.00
2018-12-08T06:10:05.252Z,1.23
2018-12-08T06:12:39.169Z,1.20
2018-12-08T06:15:13.168Z,1.00
2018-12-08T06:17:49.142Z,1.23
2018-12-08T06:20:23.136Z,1.00
2018-12-08T06:22:56.954Z,0.97
2018-12-08T06:25:30.925Z,1.40
2018-12-08T06:28:05.590Z,1.10
2018-12-08T06:30:38.940Z,0.90
2018-12-08T06:33:12.693Z,1.30
2018-12-08T06:35:46.849Z,0.80
2018-12-08T06:38:20.761Z,1.10
2018-12-08T06:40:54.879Z,0.80
2018-12-08T06:43:28.850Z,1.10
2018-12-08T06:46:02.686Z,0.80
2018-12-08T06:48:36.585Z,1.00
2018-12-08T06:51:07.853Z,1.00
2018-12-08T06:53:41.838Z,0.87
2018-12-08T06:56:16.084Z,0.90
2018-12-08T06:58:53.760Z,0.90
2018-12-08T07:01:27.805Z,1.20
2018-12-08T07:04:01.624Z,1.27
2018-12-08T07:06:35.452Z,1.33
2018-12-08T07:09:09.482Z,0.77
2018-12-08T07:11:40.711Z,1.80
2018-12-08T07:14:18.384Z,1.20
2018-12-08T07:16:56.151Z,1.17
2018-12-08T07:19:30.135Z,1.20
2018-12-08T07:22:03.988Z,1.20
2018-12-08T07:24:37.804Z,1.40
2018-12-08T07:27:11.849Z,1.30
2018-12-08T07:29:45.899Z,1.07
2018-12-08T07:32:20.033Z,1.10
2018-12-08T07:34:53.940Z,1.30
2018-12-08T07:37:27.973Z,1.60
2018-12-08T07:40:01.834Z,1.30
2018-12-08T07:42:35.751Z,1.03
2018-12-08T07:45:09.729Z,1.13
2018-12-08T07:47:43.760Z,1.33
2018-12-08T07:50:17.692Z,1.47
2018-12-08T07:52:51.753Z,1.20
2018-12-08T07:55:25.560Z,0.87
2018-12-08T07:57:59.480Z,1.03
2018-12-08T08:00:33.599Z,1.13
2018-12-08T08:03:07.242Z,1.10
2018-12-08T08:05:45.032Z,1.00
2018-12-08T08:08:20.943Z,1.00
2018-12-08T08:10:54.880Z,0.97
2018-12-08T08:13:28.891Z,1.00
2018-12-08T08:16:02.827Z,1.07
2018-12-08T08:18:36.845Z,1.10
2018-12-08T08:21:14.684Z,1.13
2018-12-08T08:23:48.812Z,1.20
2018-12-08T08:26:22.734Z,1.00
2018-12-08T08:28:56.451Z,0.90
2018-12-08T08:31:30.379Z,1.40
2018-12-08T08:34:04.721Z,1.40
2018-12-08T08:36:38.515Z,1.50
2018-12-08T08:39:12.755Z,1.33
2018-12-08T08:41:46.677Z,1.27
2018-12-08T08:44:20.184Z,1.30
2018-12-08T08:46:51.434Z,1.30
2018-12-08T08:49:25.165Z,1.37
2018-12-08T08:51:58.889Z,1.60
2018-12-08T08:54:32.815Z,1.40
2018-12-08T08:57:06.631Z,1.20
2018-12-08T08:59:44.371Z,1.23
2018-12-08T09:02:15.569Z,1.37
2018-12-08T09:04:49.402Z,1.67
2018-12-08T09:07:27.140Z,1.30
2018-12-08T09:10:03.298Z,1.43
2018-12-08T09:12:37.261Z,1.20
2018-12-08T09:15:15.023Z,1.43
2018-12-08T09:17:49.119Z,1.33
2018-12-08T09:20:23.123Z,1.53
2018-12-08T09:22:56.368Z,1.43
2018-12-08T09:25:30.395Z,1.67
2018-12-08T09:28:04.441Z,1.43
2018-12-08T09:30:38.346Z,1.40
2018-12-08T09:33:16.120Z,1.40
2018-12-08T09:35:50.225Z,2.23
2018-12-08T09:38:24.034Z,1.37
2018-12-08T09:40:57.859Z,1.13
2018-12-08T09:43:31.621Z,1.60
2018-12-08T09:46:05.528Z,1.70
2018-12-08T09:48:43.339Z,1.00
2018-12-08T09:51:17.366Z,1.10
2018-12-08T09:53:51.321Z,1.30
2018-12-08T09:58:59.283Z,0.90
2018-12-08T10:01:30.523Z,0.97
2018-12-08T10:04:04.228Z,1.40
2018-12-08T10:06:38.240Z,0.87
2018-12-08T10:09:11.958Z,1.10
2018-12-08T10:11:45.766Z,1.50
2018-12-08T10:14:19.907Z,1.00
2018-12-08T10:16:53.897Z,1.13
2018-12-08T10:19:34.026Z,1.20
2018-12-08T10:22:07.716Z,1.03
2018-12-08T10:24:41.641Z,1.27
2018-12-08T10:27:15.726Z,1.13
2018-12-08T10:29:49.640Z,1.30
2018-12-08T10:32:23.688Z,1.20
2018-12-08T10:34:57.846Z,1.47
2018-12-08T10:37:31.677Z,1.30
2018-12-08T10:40:06.411Z,1.07
2018-12-08T10:42:40.530Z,1.40
2018-12-08T10:45:16.664Z,1.57
2018-12-08T10:47:50.379Z,1.20
2018-12-08T10:50:24.205Z,1.30
2018-12-08T10:53:02.029Z,1.33
2018-12-08T10:55:35.235Z,1.00
2018-12-08T11:03:51.836Z,1.63
2018-12-08T11:06:25.744Z,1.83
2018-12-08T11:08:59.681Z,1.37
2018-12-08T11:11:33.565Z,1.00
2018-12-08T11:14:07.498Z,0.87
2018-12-08T11:16:41.388Z,1.37
2018-12-08T11:19:15.174Z,1.33
2018-12-08T11:21:49.298Z,1.30
2018-12-08T11:24:22.536Z,1.40
2018-12-08T11:26:56.371Z,1.00
2018-12-08T11:29:30.515Z,1.13
2018-12-08T11:32:04.439Z,1.20
2018-12-08T11:34:40.299Z,0.90
2018-12-08T11:37:14.332Z,1.20
2018-12-08T11:39:48.489Z,1.00
2018-12-08T11:42:26.380Z,1.00
2018-12-08T11:45:00.713Z,1.00
2018-12-08T11:47:34.199Z,1.00
2018-12-08T11:50:08.248Z,0.97
2018-12-08T11:52:45.991Z,0.90
2018-12-08T11:55:20.123Z,1.10
2018-12-08T11:57:54.195Z,0.80
2018-12-08T12:00:28.258Z,1.17
2018-12-08T12:03:02.178Z,0.90
2018-12-08T12:05:40.034Z,0.83
2018-12-08T12:08:17.828Z,1.10
2018-12-08T12:10:51.857Z,0.80
2018-12-08T12:13:25.702Z,1.00
2018-12-08T12:15:59.522Z,0.63
2018-12-08T12:18:33.434Z,0.87
2018-12-08T12:21:07.400Z,0.90
2018-12-08T12:23:41.361Z,0.80
2018-12-08T12:26:15.515Z,0.80
2018-12-08T12:28:49.193Z,1.00
2018-12-08T12:31:23.101Z,1.07
2018-12-08T12:34:01.206Z,0.90
2018-12-08T12:36:34.981Z,0.80
2018-12-08T12:39:09.093Z,1.20
2018-12-08T12:41:46.572Z,0.87
2018-12-08T12:44:24.461Z,0.70
2018-12-08T12:46:58.379Z,0.90
2018-12-08T12:49:31.637Z,0.90
2018-12-08T12:52:05.511Z,0.90
2018-12-08T12:54:39.603Z,0.73
2018-12-08T12:57:13.559Z,0.90
2018-12-08T12:59:47.494Z,0.93
2018-12-08T13:02:25.119Z,0.93
2018-12-08T13:04:59.257Z,0.90
2018-12-08T13:07:33.595Z,0.90
2018-12-08T13:10:07.166Z,1.03
2018-12-08T13:12:43.092Z,1.27
2018-12-08T13:15:17.222Z,0.87
2018-12-08T13:17:51.251Z,1.20
2018-12-08T13:20:25.337Z,0.90
2018-12-08T13:22:59.232Z,0.83
2018-12-08T13:25:33.049Z,1.00
2018-12-08T13:28:06.777Z,0.80
2018-12-08T13:30:40.704Z,0.90
2018-12-08T13:33:14.703Z,1.00
2018-12-08T13:35:50.683Z,0.90
2018-12-08T13:38:24.831Z,0.90
2018-12-08T13:40:58.471Z,1.00
2018-12-08T13:43:32.290Z,0.80
2018-12-08T13:46:06.453Z,0.90
2018-12-08T13:48:40.008Z,0.90
2018-12-08T13:51:13.895Z,1.00
2018-12-08T13:53:47.692Z,1.10
2018-12-08T13:56:21.419Z,0.80
2018-12-08T13:59:00.222Z,1.33
2018-12-08T14:01:34.198Z,0.90
2018-12-08T14:04:07.807Z,0.90
2018-12-08T14:06:45.937Z,0.73
2018-12-08T14:09:19.609Z,1.40
2018-12-08T14:11:53.549Z,1.20
2018-12-08T14:14:27.528Z,0.80
2018-12-08T14:17:03.623Z,0.83
2018-12-08T14:19:36.979Z,0.93
2018-12-08T14:22:12.825Z,1.00
2018-12-08T14:24:46.849Z,0.90
2018-12-08T14:27:20.820Z,1.03
2018-12-08T14:29:57.274Z,1.03
2018-12-08T14:32:30.819Z,1.10
2018-12-08T14:35:04.973Z,1.10
2018-12-08T14:37:38.583Z,1.13
2018-12-08T14:40:12.720Z,0.90
2018-12-08T14:42:46.774Z,1.13
2018-12-08T14:45:24.747Z,1.30
2018-12-08T14:47:58.681Z,1.33
2018-12-08T14:50:32.532Z,1.00
2018-12-08T14:53:06.495Z,1.20
2018-12-08T14:55:40.537Z,1.10
2018-12-08T14:58:14.552Z,1.03
2018-12-08T15:00:47.813Z,1.20
2018-12-08T15:03:21.635Z,1.23
2018-12-08T15:05:59.251Z,1.10
2018-12-08T15:08:32.827Z,1.33
2018-12-08T15:11:10.375Z,1.30
2018-12-08T15:13:44.284Z,1.10
2018-12-08T15:16:20.205Z,1.33
2018-12-08T15:18:54.255Z,1.00
2018-12-08T15:21:28.360Z,1.43
2018-12-08T15:24:02.254Z,1.00
2018-12-08T15:26:40.219Z,1.30
2018-12-08T15:29:13.635Z,0.73
2018-12-08T15:31:47.474Z,1.60
2018-12-08T15:34:21.328Z,1.50
2018-12-08T15:36:55.261Z,0.97
2018-12-08T15:39:28.923Z,1.20
2018-12-08T15:42:06.621Z,1.03
2018-12-08T15:44:40.840Z,1.00
2018-12-08T15:47:14.418Z,0.90
2018-12-08T15:49:48.413Z,0.73
2018-12-08T15:52:22.469Z,0.73
2018-12-08T15:55:00.286Z,1.30
2018-12-08T15:57:33.525Z,0.90
2018-12-08T16:00:09.120Z,0.87
2018-12-08T16:02:42.351Z,0.90
2018-12-08T16:05:16.363Z,0.80
2018-12-08T16:07:54.218Z,0.80
2018-12-08T16:10:27.457Z,0.73
2018-12-08T16:13:01.487Z,0.73
2018-12-08T16:15:35.417Z,0.70
2018-12-08T16:18:13.195Z,0.80
2018-12-08T16:20:46.792Z,0.57
2018-12-08T16:23:20.484Z,0.80
2018-12-08T16:25:54.085Z,0.70
2018-12-08T16:28:28.357Z,0.90
2018-12-08T16:31:02.081Z,0.90
2018-12-08T16:33:35.917Z,0.70
2018-12-08T16:36:09.836Z,1.07
2018-12-08T16:38:43.508Z,0.97
2018-12-08T16:41:17.318Z,0.70
2018-12-08T16:43:51.360Z,0.77
2018-12-08T16:46:26.368Z,0.90
2018-12-08T16:49:00.304Z,0.90
2018-12-08T16:51:35.072Z,0.90
2018-12-08T16:54:11.155Z,0.90
2018-12-08T16:56:45.007Z,0.80
2018-12-08T16:59:18.791Z,0.90
2018-12-08T17:01:53.141Z,1.00
2018-12-08T17:04:26.596Z,1.10
2018-12-08T17:07:00.649Z,1.10
2018-12-08T17:09:34.379Z,1.10
2018-12-08T17:12:08.346Z,0.70
2018-12-08T17:14:46.068Z,1.30
2018-12-08T17:17:20.204Z,1.10
2018-12-08T17:19:53.937Z,1.10
2018-12-08T17:22:27.785Z,1.50
2018-12-08T17:25:05.376Z,1.40
2018-12-08T17:27:39.215Z,1.27
2018-12-08T17:30:14.706Z,1.03
2018-12-08T17:32:48.675Z,1.37
2018-12-08T17:35:23.462Z,0.83
2018-12-08T17:37:56.969Z,1.37
2018-12-08T17:40:31.083Z,1.50
2018-12-08T17:43:05.079Z,0.87
2018-12-08T17:45:39.054Z,1.73
2018-12-08T17:48:16.992Z,1.13
2018-12-08T17:50:50.819Z,1.40
2018-12-08T17:53:24.954Z,1.50
2018-12-08T17:55:59.136Z,0.87
2018-12-08T17:58:33.395Z,1.27
2018-12-08T18:01:06.845Z,1.17
2018-12-08T18:03:44.587Z,1.10
2018-12-08T18:06:18.806Z,1.00
2018-12-08T18:08:56.469Z,0.90
2018-12-08T18:11:30.646Z,0.70
2018-12-08T18:14:04.370Z,0.90
2018-12-08T18:16:38.187Z,0.80
2018-12-08T18:19:12.144Z,0.80
2018-12-08T18:21:49.906Z,0.63
2018-12-08T18:24:24.118Z,0.77
2018-12-08T18:26:58.241Z,1.03
2018-12-08T18:29:31.859Z,0.70
2018-12-08T18:32:08.308Z,0.83
2018-12-08T18:34:42.124Z,1.70
2018-12-08T18:37:13.245Z,1.07
2018-12-08T18:39:47.066Z,0.73
2018-12-08T18:42:21.003Z,1.20
2018-12-08T18:44:55.169Z,0.83
2018-12-08T18:47:29.091Z,0.57
2018-12-08T18:50:06.154Z,0.93
2018-12-08T18:52:39.964Z,0.80
2018-12-08T18:55:14.101Z,0.70
2018-12-08T18:57:47.895Z,0.60
2018-12-08T19:00:21.823Z,0.60
2018-12-08T19:02:55.812Z,0.50
2018-12-08T19:05:33.639Z,0.90
2018-12-08T19:08:10.487Z,0.70
2018-12-08T19:10:43.772Z,0.60
2018-12-08T19:13:17.532Z,1.20
2018-12-08T19:15:55.408Z,0.70
2018-12-08T19:18:29.549Z,0.60
2018-12-08T19:21:03.666Z,0.90
2018-12-08T19:23:43.680Z,0.93
2018-12-08T19:26:12.558Z,0.50
2018-12-08T19:28:46.469Z,0.57
2018-12-08T19:31:20.491Z,0.57
2018-12-08T19:33:54.351Z,0.70
2018-12-08T19:36:28.283Z,0.70
2018-12-08T19:39:02.328Z,0.40
2018-12-08T19:41:37.079Z,0.30
2018-12-08T19:44:10.295Z,0.50
2018-12-08T19:46:44.279Z,0.40
2018-12-08T19:49:18.078Z,0.57
2018-12-08T19:51:51.360Z,0.40
2018-12-08T19:54:25.152Z,0.60
2018-12-08T19:57:01.210Z,0.60
2018-12-08T19:59:35.351Z,0.50
2018-12-08T20:02:09.475Z,0.33
2018-12-08T20:04:43.281Z,0.73
2018-12-08T20:07:17.193Z,1.03
2018-12-08T20:09:54.999Z,0.93
2018-12-08T20:12:29.096Z,0.40
2018-12-08T20:15:03.038Z,0.40
2018-12-08T20:17:41.761Z,0.30
2018-12-08T20:20:16.689Z,0.47
2018-12-08T20:22:50.682Z,0.30
2018-12-08T20:25:26.865Z,0.20
2018-12-08T20:28:00.508Z,0.50
2018-12-08T20:30:34.076Z,0.47
2018-12-08T20:33:08.007Z,0.30
2018-12-08T20:35:42.050Z,0.50
2018-12-08T20:38:16.285Z,0.20
2018-12-08T20:40:50.358Z,0.30
2018-12-08T20:43:24.077Z,0.40
2018-12-08T20:45:57.817Z,0.30
2018-12-08T20:48:31.682Z,0.30
2018-12-08T20:51:09.556Z,0.40
2018-12-08T20:53:43.667Z,0.20
2018-12-08T20:56:17.505Z,0.50
2018-12-08T20:58:51.511Z,0.30
2018-12-08T21:01:25.457Z,0.40
2018-12-08T21:03:59.499Z,0.40
2018-12-08T21:06:33.324Z,0.30
2018-12-08T21:09:07.241Z,0.20
2018-12-08T21:11:41.079Z,0.20
2018-12-08T21:14:14.878Z,0.30
2018-12-08T21:16:48.667Z,0.53
2018-12-08T21:21:57.083Z,0.20
2018-12-08T21:24:33.119Z,0.37
2018-12-08T21:27:06.893Z,0.10
2018-12-08T21:29:45.002Z,0.20
2018-12-08T21:32:21.327Z,0.20
2018-12-08T21:34:54.906Z,0.23
2018-12-08T21:37:26.400Z,0.30
2018-12-08T21:40:00.177Z,0.20
2018-12-08T21:42:33.950Z,0.30
2018-12-08T21:45:07.481Z,0.20
2018-12-08T21:47:42.629Z,0.30
2018-12-08T21:50:20.253Z,0.20
2018-12-08T21:52:54.445Z,0.30
2018-12-08T21:55:28.499Z,0.30
2018-12-08T21:58:02.675Z,0.20
2018-12-08T22:00:40.249Z,0.20
2018-12-08T22:03:14.139Z,0.40
2018-12-08T22:05:48.271Z,0.30
2018-12-08T22:08:23.983Z,0.20
2018-12-08T22:10:59.559Z,0.20
2018-12-08T22:13:33.000Z,0.20
2018-12-08T22:16:06.715Z,0.20
2018-12-08T22:18:41.102Z,0.30
2018-12-08T22:26:22.696Z,0.30
2018-12-08T22:28:56.021Z,0.30
2018-12-08T22:31:30.767Z,0.30
2018-12-08T22:34:04.742Z,0.20
2018-12-08T22:36:38.682Z,0.20
2018-12-08T22:39:12.725Z,0.20
2018-12-08T22:41:47.012Z,0.30
2018-12-08T22:44:24.587Z,0.20
2018-12-08T22:46:58.503Z,0.17
2018-12-08T22:49:32.549Z,0.10
2018-12-08T22:52:06.436Z,0.20
2018-12-08T22:54:44.175Z,0.20
2018-12-08T22:57:18.001Z,0.20
2018-12-08T22:59:51.916Z,0.20
2018-12-08T23:02:25.810Z,0.20
2018-12-08T23:04:59.637Z,0.20
2018-12-08T23:07:37.439Z,0.20
2018-12-08T23:10:11.547Z,0.30
2018-12-08T23:12:45.577Z,0.30
2018-12-08T23:15:19.485Z,0.20
2018-12-08T23:17:57.257Z,0.20
2018-12-08T23:20:31.173Z,0.20
2018-12-08T23:23:05.273Z,0.30
2018-12-08T23:28:13.085Z,0.20
2018-12-08T23:30:47.224Z,0.20
2018-12-08T23:33:21.249Z,0.27
2018-12-08T23:35:56.585Z,0.20
2018-12-08T23:38:30.533Z,0.37
2018-12-08T23:41:04.361Z,0.33
2018-12-08T23:43:38.399Z,0.30
2018-12-08T23:46:12.360Z,0.20
2018-12-08T23:48:48.865Z,0.33
2018-12-08T23:51:22.585Z,0.20
2018-12-08T23:53:56.471Z,0.40
2018-12-08T23:56:30.593Z,0.30
2018-12-08T23:59:04.466Z,0.40
